createdAt,value
2018-12-14T00:01:06.204Z,2.70
2018-12-14T00:03:34.891Z,2.60
2018-12-14T00:06:03.306Z,2.70
2018-12-14T00:08:31.854Z,2.60
2018-12-14T00:11:00.777Z,2.70
2018-12-14T00:13:29.644Z,2.60
2018-12-14T00:15:58.150Z,2.60
2018-12-14T00:18:26.658Z,2.60
2018-12-14T00:20:55.227Z,2.60
2018-12-14T00:23:24.001Z,2.60
2018-12-14T00:25:52.436Z,2.60
2018-12-14T00:28:20.859Z,2.60
2018-12-14T00:30:49.450Z,2.60
2018-12-14T00:33:17.887Z,2.60
2018-12-14T00:35:46.522Z,2.60
2018-12-14T00:38:14.995Z,2.60
2018-12-14T00:40:43.601Z,2.60
2018-12-14T00:43:12.278Z,2.60
2018-12-14T00:45:40.854Z,2.60
2018-12-14T00:48:09.395Z,2.60
2018-12-14T00:50:37.981Z,2.60
2018-12-14T00:53:06.718Z,2.50
2018-12-14T00:55:35.207Z,2.50
2018-12-14T00:58:03.739Z,2.50
2018-12-14T01:00:32.473Z,2.50
2018-12-14T01:03:01.008Z,2.50
2018-12-14T01:05:29.498Z,2.50
2018-12-14T01:07:58.126Z,2.50
2018-12-14T01:10:26.547Z,2.50
2018-12-14T01:12:54.983Z,2.50
2018-12-14T01:15:23.484Z,2.50
2018-12-14T01:17:51.991Z,2.50
2018-12-14T01:20:20.510Z,2.50
2018-12-14T01:22:49.133Z,2.50
2018-12-14T01:25:17.730Z,2.50
2018-12-14T01:27:46.272Z,2.50
2018-12-14T01:30:14.906Z,2.50
2018-12-14T01:32:43.323Z,2.50
2018-12-14T01:35:11.920Z,2.50
2018-12-14T01:37:40.640Z,2.50
2018-12-14T01:40:09.433Z,2.50
2018-12-14T01:42:37.846Z,2.50
2018-12-14T01:45:06.601Z,2.40
2018-12-14T01:47:35.284Z,2.40
2018-12-14T01:50:04.509Z,2.40
2018-12-14T01:52:33.040Z,2.40
2018-12-14T01:55:01.730Z,2.40
2018-12-14T01:57:30.517Z,2.40
2018-12-14T01:59:59.241Z,2.40
2018-12-14T02:02:27.693Z,2.40
2018-12-14T02:04:56.144Z,2.40
2018-12-14T02:07:24.778Z,2.40
2018-12-14T02:09:53.227Z,2.40
2018-12-14T02:12:21.695Z,2.40
2018-12-14T02:14:50.215Z,2.40
2018-12-14T02:17:18.699Z,2.40
2018-12-14T02:19:47.259Z,2.40
2018-12-14T02:22:15.698Z,2.40
2018-12-14T02:24:44.225Z,2.40
2018-12-14T02:27:12.637Z,2.40
2018-12-14T02:29:41.424Z,2.40
2018-12-14T02:32:10.446Z,2.40
2018-12-14T02:34:39.387Z,2.40
2018-12-14T02:37:07.958Z,2.40
2018-12-14T02:39:36.480Z,2.40
2018-12-14T02:42:05.037Z,2.40
2018-12-14T02:44:33.622Z,2.40
2018-12-14T02:47:02.144Z,2.40
2018-12-14T02:49:30.603Z,2.30
2018-12-14T02:51:59.046Z,2.40
2018-12-14T02:54:27.543Z,2.40
2018-12-14T02:56:55.977Z,2.40
2018-12-14T02:59:24.446Z,2.40
2018-12-14T03:01:52.915Z,2.40
2018-12-14T03:04:21.415Z,2.30
2018-12-14T03:06:49.966Z,2.30
2018-12-14T03:09:19.005Z,2.30
2018-12-14T03:11:47.523Z,2.30
2018-12-14T03:14:16.213Z,2.30
2018-12-14T03:16:44.720Z,2.30
2018-12-14T03:19:13.259Z,2.30
2018-12-14T03:21:41.739Z,2.30
2018-12-14T03:24:10.300Z,2.30
2018-12-14T03:26:38.810Z,2.30
2018-12-14T03:29:07.389Z,2.30
2018-12-14T03:31:35.804Z,2.30
2018-12-14T03:34:04.212Z,2.30
2018-12-14T03:36:32.687Z,2.30
2018-12-14T03:39:01.347Z,2.30
2018-12-14T03:41:29.785Z,2.30
2018-12-14T03:43:58.223Z,2.20
2018-12-14T03:46:26.806Z,2.10
2018-12-14T03:48:55.345Z,2.00
2018-12-14T03:51:28.702Z,1.90
2018-12-14T03:53:57.377Z,1.80
2018-12-14T03:56:26.069Z,1.70
2018-12-14T03:58:54.723Z,1.70
2018-12-14T04:01:23.125Z,1.60
2018-12-14T04:03:51.661Z,1.50
2018-12-14T04:06:20.274Z,1.60
2018-12-14T04:08:48.659Z,1.60
2018-12-14T04:11:17.172Z,1.60
2018-12-14T04:13:45.684Z,1.60
2018-12-14T04:16:14.571Z,1.60
2018-12-14T04:18:43.001Z,1.50
2018-12-14T04:21:11.590Z,1.50
2018-12-14T04:23:41.035Z,1.50
2018-12-14T04:26:09.609Z,1.50
2018-12-14T04:28:38.200Z,1.50
2018-12-14T04:31:06.623Z,1.50
2018-12-14T04:33:35.695Z,1.50
2018-12-14T04:36:04.330Z,1.50
2018-12-14T04:38:32.802Z,1.50
2018-12-14T04:41:01.221Z,1.50
2018-12-14T04:43:29.808Z,1.50
2018-12-14T04:45:58.220Z,1.60
2018-12-14T04:48:26.771Z,1.50
2018-12-14T04:50:55.360Z,1.50
2018-12-14T04:53:23.884Z,1.50
2018-12-14T04:55:52.298Z,1.50
2018-12-14T04:58:20.900Z,1.50
2018-12-14T05:00:49.474Z,1.40
2018-12-14T05:03:17.924Z,1.40
2018-12-14T05:05:46.645Z,1.40
2018-12-14T05:08:15.207Z,1.40
2018-12-14T05:10:43.846Z,1.40
2018-12-14T05:13:12.631Z,1.40
2018-12-14T05:15:41.072Z,1.40
2018-12-14T05:18:09.516Z,1.40
2018-12-14T05:20:38.005Z,1.40
2018-12-14T05:23:06.443Z,1.40
2018-12-14T05:25:34.841Z,1.30
2018-12-14T05:28:03.432Z,1.30
2018-12-14T05:30:31.844Z,1.30
2018-12-14T05:33:00.350Z,1.30
2018-12-14T05:35:29.127Z,1.30
2018-12-14T05:37:57.771Z,1.30
2018-12-14T05:40:26.224Z,1.30
2018-12-14T05:42:54.703Z,1.30
2018-12-14T05:45:23.271Z,1.40
2018-12-14T05:47:51.939Z,1.30
2018-12-14T05:50:20.389Z,1.30
2018-12-14T05:52:48.801Z,1.30
2018-12-14T05:55:17.511Z,1.20
2018-12-14T05:57:46.101Z,1.30
2018-12-14T06:00:14.650Z,1.30
2018-12-14T06:02:43.077Z,1.30
2018-12-14T06:05:11.697Z,1.30
2018-12-14T06:07:40.346Z,1.30
2018-12-14T06:10:09.001Z,1.20
2018-12-14T06:12:37.632Z,1.30
2018-12-14T06:15:06.467Z,1.20
2018-12-14T06:17:34.975Z,1.30
2018-12-14T06:20:03.706Z,1.30
2018-12-14T06:22:32.130Z,1.20
2018-12-14T06:25:00.541Z,1.10
2018-12-14T06:27:29.101Z,1.10
2018-12-14T06:29:57.867Z,1.10
2018-12-14T06:32:26.402Z,1.10
2018-12-14T06:34:54.901Z,1.10
2018-12-14T06:37:23.853Z,1.10
2018-12-14T06:39:52.263Z,1.10
2018-12-14T06:42:21.244Z,1.10
2018-12-14T06:44:49.745Z,1.10
2018-12-14T06:47:18.140Z,1.10
2018-12-14T06:49:46.621Z,1.10
2018-12-14T06:52:15.072Z,1.10
2018-12-14T06:54:43.498Z,1.10
2018-12-14T06:57:12.094Z,1.10
2018-12-14T06:59:40.663Z,1.10
2018-12-14T07:02:09.178Z,1.10
2018-12-14T07:04:37.665Z,1.00
2018-12-14T07:07:06.103Z,1.00
2018-12-14T07:09:35.104Z,1.10
2018-12-14T07:12:03.589Z,1.00
2018-12-14T07:14:32.132Z,1.00
2018-12-14T07:17:00.513Z,1.00
2018-12-14T07:19:28.975Z,1.00
2018-12-14T07:21:57.591Z,1.00
2018-12-14T07:24:26.082Z,0.90
2018-12-14T07:26:55.090Z,1.00
2018-12-14T07:29:23.504Z,1.00
2018-12-14T07:31:52.032Z,1.10
2018-12-14T07:34:20.624Z,1.10
2018-12-14T07:36:49.295Z,1.10
2018-12-14T07:39:17.840Z,1.10
2018-12-14T07:41:46.345Z,1.10
2018-12-14T07:44:14.873Z,1.20
2018-12-14T07:46:43.340Z,1.20
2018-12-14T07:49:11.958Z,1.30
2018-12-14T07:51:40.633Z,1.30
2018-12-14T07:54:09.054Z,1.30
2018-12-14T07:56:37.525Z,1.40
2018-12-14T07:59:06.406Z,1.40
2018-12-14T08:01:34.815Z,1.40
2018-12-14T08:04:03.542Z,1.50
2018-12-14T08:06:32.099Z,1.50
2018-12-14T08:09:00.503Z,1.50
2018-12-14T08:11:29.016Z,1.60
2018-12-14T08:13:57.454Z,1.60
2018-12-14T08:16:26.167Z,1.60
2018-12-14T08:18:54.637Z,1.60
2018-12-14T08:21:23.076Z,1.70
2018-12-14T08:23:51.492Z,1.70
2018-12-14T08:26:20.058Z,1.70
2018-12-14T08:28:48.496Z,1.70
2018-12-14T08:31:17.062Z,1.80
2018-12-14T08:33:45.682Z,1.80
2018-12-14T08:36:14.202Z,1.90
2018-12-14T08:38:42.691Z,1.90
2018-12-14T08:41:11.299Z,2.00
2018-12-14T08:43:41.634Z,2.00
2018-12-14T08:46:10.403Z,2.10
2018-12-14T08:48:38.908Z,2.10
2018-12-14T08:51:07.347Z,2.10
2018-12-14T08:53:36.322Z,2.20
2018-12-14T08:56:04.864Z,2.20
2018-12-14T08:58:33.429Z,2.30
2018-12-14T09:01:01.976Z,2.30
2018-12-14T09:03:30.451Z,2.30
2018-12-14T09:05:58.954Z,2.40
2018-12-14T09:08:27.381Z,2.40
2018-12-14T09:10:55.942Z,2.50
2018-12-14T09:13:24.339Z,2.50
2018-12-14T09:15:52.935Z,2.60
2018-12-14T09:18:21.538Z,2.60
2018-12-14T09:20:50.045Z,2.70
2018-12-14T09:23:18.607Z,2.70
2018-12-14T09:25:47.140Z,2.80
2018-12-14T09:28:15.673Z,2.80
2018-12-14T09:30:44.358Z,2.90
2018-12-14T09:33:12.992Z,2.90
2018-12-14T09:35:41.419Z,2.90
2018-12-14T09:38:09.863Z,3.00
2018-12-14T09:40:38.505Z,3.00
2018-12-14T09:43:07.007Z,3.10
2018-12-14T09:45:35.433Z,3.10
2018-12-14T09:48:04.067Z,3.10
2018-12-14T09:50:32.631Z,3.20
2018-12-14T09:53:01.053Z,3.20
2018-12-14T09:55:29.982Z,3.20
2018-12-14T09:57:58.513Z,3.30
2018-12-14T10:00:27.167Z,3.30
2018-12-14T10:02:55.796Z,3.30
2018-12-14T10:05:24.317Z,3.30
2018-12-14T10:07:52.733Z,3.40
2018-12-14T10:10:21.207Z,3.40
2018-12-14T10:12:49.628Z,3.40
2018-12-14T10:15:18.234Z,3.50
2018-12-14T10:17:46.737Z,3.50
2018-12-14T10:20:15.177Z,3.50
2018-12-14T10:22:43.584Z,3.50
2018-12-14T10:25:12.122Z,3.60
2018-12-14T10:27:40.556Z,3.60
2018-12-14T10:30:09.471Z,3.60
2018-12-14T10:32:38.049Z,3.60
2018-12-14T10:35:08.385Z,3.60
2018-12-14T10:37:36.984Z,3.70
2018-12-14T10:40:06.478Z,3.70
2018-12-14T10:42:34.885Z,3.70
2018-12-14T10:45:03.581Z,3.70
2018-12-14T10:47:32.086Z,3.70
2018-12-14T10:50:00.534Z,3.70
2018-12-14T10:52:28.941Z,3.70
2018-12-14T10:54:57.743Z,3.70
2018-12-14T10:57:26.419Z,3.60
2018-12-14T10:59:54.853Z,3.60
2018-12-14T11:02:23.362Z,3.70
2018-12-14T11:04:51.807Z,3.70
2018-12-14T11:07:20.358Z,3.70
2018-12-14T11:09:48.872Z,3.70
2018-12-14T11:12:17.293Z,3.70
2018-12-14T11:14:45.677Z,3.70
2018-12-14T11:17:14.125Z,3.80
2018-12-14T11:19:42.620Z,3.80
2018-12-14T11:22:11.140Z,3.80
2018-12-14T11:24:39.733Z,3.80
2018-12-14T11:27:08.339Z,3.80
2018-12-14T11:29:36.754Z,3.80
2018-12-14T11:32:05.283Z,3.80
2018-12-14T11:34:33.896Z,3.80
2018-12-14T11:37:02.360Z,3.80
2018-12-14T11:39:30.816Z,3.90
2018-12-14T11:41:59.488Z,3.90
2018-12-14T11:44:27.916Z,3.90
2018-12-14T11:46:56.401Z,3.90
2018-12-14T11:49:24.829Z,3.90
2018-12-14T11:51:53.279Z,3.90
2018-12-14T11:54:21.828Z,3.90
2018-12-14T11:56:50.422Z,4.00
2018-12-14T11:59:19.003Z,4.00
2018-12-14T12:01:47.593Z,4.00
2018-12-14T12:04:16.003Z,4.00
2018-12-14T12:06:44.551Z,4.00
2018-12-14T12:09:13.221Z,4.00
2018-12-14T12:11:41.767Z,4.10
2018-12-14T12:14:10.456Z,4.10
2018-12-14T12:16:39.027Z,4.10
2018-12-14T12:19:07.474Z,4.10
2018-12-14T12:21:35.996Z,4.10
2018-12-14T12:24:04.566Z,4.10
2018-12-14T12:26:32.982Z,4.10
2018-12-14T12:29:01.450Z,4.10
2018-12-14T12:31:29.913Z,4.10
2018-12-14T12:33:58.315Z,4.10
2018-12-14T12:36:26.853Z,4.10
2018-12-14T12:38:55.334Z,4.10
2018-12-14T12:41:23.845Z,4.10
2018-12-14T12:43:52.278Z,4.10
2018-12-14T12:46:20.740Z,4.10
2018-12-14T12:48:49.707Z,4.10
2018-12-14T12:51:18.668Z,4.10
2018-12-14T12:53:47.110Z,4.20
2018-12-14T12:56:16.133Z,4.20
2018-12-14T12:58:44.678Z,4.20
2018-12-14T13:01:13.445Z,4.20
2018-12-14T13:03:41.872Z,4.20
2018-12-14T13:06:10.379Z,4.20
2018-12-14T13:08:39.574Z,4.20
2018-12-14T13:11:08.279Z,4.20
2018-12-14T13:13:36.790Z,4.20
2018-12-14T13:16:05.298Z,4.20
2018-12-14T13:18:33.743Z,4.30
2018-12-14T13:21:02.322Z,4.20
2018-12-14T13:23:30.916Z,4.20
2018-12-14T13:26:00.371Z,4.30
2018-12-14T13:28:29.287Z,4.30
2018-12-14T13:30:57.927Z,4.30
2018-12-14T13:33:26.694Z,4.30
2018-12-14T13:35:55.379Z,4.30
2018-12-14T13:38:23.843Z,4.30
2018-12-14T13:40:52.246Z,4.30
2018-12-14T13:43:20.655Z,4.30
2018-12-14T13:45:49.095Z,4.30
2018-12-14T13:48:17.609Z,4.30
2018-12-14T13:50:46.041Z,4.30
2018-12-14T13:53:14.530Z,4.30
2018-12-14T13:55:43.086Z,4.30
2018-12-14T13:58:11.727Z,4.30
2018-12-14T14:00:40.195Z,4.30
2018-12-14T14:03:08.780Z,4.30
2018-12-14T14:05:37.326Z,4.30
2018-12-14T14:08:05.831Z,4.30
2018-12-14T14:10:34.362Z,4.30
2018-12-14T14:13:02.919Z,4.30
2018-12-14T14:15:31.359Z,4.30
2018-12-14T14:17:59.913Z,4.30
2018-12-14T14:20:28.529Z,4.40
2018-12-14T14:22:57.095Z,4.30
2018-12-14T14:25:26.655Z,4.30
2018-12-14T14:27:55.078Z,4.40
2018-12-14T14:30:23.550Z,4.40
2018-12-14T14:32:51.994Z,4.40
2018-12-14T14:35:20.512Z,4.40
2018-12-14T14:37:49.007Z,4.30
2018-12-14T14:40:17.399Z,4.40
2018-12-14T14:42:45.964Z,4.30
2018-12-14T14:45:14.416Z,4.40
2018-12-14T14:47:42.871Z,4.40
2018-12-14T14:50:11.303Z,4.40
2018-12-14T14:52:39.776Z,4.30
2018-12-14T14:55:08.599Z,4.30
2018-12-14T14:57:37.184Z,4.30
2018-12-14T15:00:06.487Z,4.30
2018-12-14T15:02:36.251Z,4.30
2018-12-14T15:05:05.991Z,4.20
2018-12-14T15:07:34.455Z,4.20
2018-12-14T15:10:03.219Z,4.20
2018-12-14T15:12:31.771Z,4.20
2018-12-14T15:15:06.372Z,4.10
2018-12-14T15:17:30.648Z,4.10
2018-12-14T15:19:59.111Z,4.10
2018-12-14T15:22:27.601Z,4.10
2018-12-14T15:24:56.025Z,4.00
2018-12-14T15:27:24.574Z,4.00
2018-12-14T15:29:53.063Z,4.00
2018-12-14T15:32:21.705Z,4.00
2018-12-14T15:34:50.119Z,3.90
2018-12-14T15:37:18.571Z,3.90
2018-12-14T15:39:47.129Z,3.90
2018-12-14T15:42:15.648Z,3.90
2018-12-14T15:44:44.124Z,3.80
2018-12-14T15:47:12.553Z,3.80
2018-12-14T15:49:40.999Z,3.80
2018-12-14T15:52:09.497Z,3.70
2018-12-14T15:54:37.945Z,3.70
2018-12-14T15:57:06.385Z,3.70
2018-12-14T15:59:34.861Z,3.70
2018-12-14T16:02:03.281Z,3.60
2018-12-14T16:04:31.740Z,3.60
2018-12-14T16:07:00.219Z,3.60
2018-12-14T16:09:28.652Z,3.60
2018-12-14T16:11:58.226Z,3.60
2018-12-14T16:14:26.881Z,3.60
2018-12-14T16:16:55.328Z,3.60
2018-12-14T16:19:23.874Z,3.60
2018-12-14T16:21:52.427Z,3.60
2018-12-14T16:24:20.917Z,3.60
2018-12-14T16:26:49.347Z,3.50
2018-12-14T16:29:17.833Z,3.50
2018-12-14T16:31:46.253Z,3.50
2018-12-14T16:34:14.805Z,3.50
2018-12-14T16:36:43.300Z,3.50
2018-12-14T16:39:11.827Z,3.50
2018-12-14T16:41:40.301Z,3.40
2018-12-14T16:44:08.773Z,3.40
2018-12-14T16:46:37.359Z,3.40
2018-12-14T16:49:05.797Z,3.40
2018-12-14T16:51:34.255Z,3.40
2018-12-14T16:54:06.520Z,3.30
2018-12-14T16:56:35.212Z,3.30
2018-12-14T16:59:03.802Z,3.30
2018-12-14T17:01:32.366Z,3.30
2018-12-14T17:04:00.901Z,3.20
2018-12-14T17:06:29.325Z,3.20
2018-12-14T17:08:57.752Z,3.20
2018-12-14T17:11:26.368Z,3.20
2018-12-14T17:13:54.791Z,3.20
2018-12-14T17:16:23.223Z,3.10
2018-12-14T17:18:51.869Z,3.10
2018-12-14T17:21:20.387Z,3.10
2018-12-14T17:23:48.825Z,3.00
2018-12-14T17:26:17.460Z,3.00
2018-12-14T17:28:46.038Z,3.00
2018-12-14T17:31:14.482Z,3.00
2018-12-14T17:33:42.978Z,2.90
2018-12-14T17:36:11.467Z,2.90
2018-12-14T17:38:40.408Z,2.90
2018-12-14T17:41:09.050Z,2.90
2018-12-14T17:43:37.499Z,2.90
2018-12-14T17:46:05.917Z,2.80
2018-12-14T17:48:34.398Z,2.80
2018-12-14T17:51:02.847Z,2.80
2018-12-14T17:53:31.277Z,2.70
2018-12-14T17:55:59.835Z,2.70
2018-12-14T17:58:28.324Z,2.70
2018-12-14T18:00:58.492Z,2.70
2018-12-14T18:03:27.402Z,2.60
2018-12-14T18:05:55.855Z,2.60
2018-12-14T18:08:24.295Z,2.60
2018-12-14T18:10:52.922Z,2.60
2018-12-14T18:13:21.574Z,2.50
2018-12-14T18:15:50.147Z,2.50
2018-12-14T18:18:18.666Z,2.50
2018-12-14T18:20:47.111Z,2.50
2018-12-14T18:23:15.524Z,2.50
2018-12-14T18:25:43.968Z,2.50
2018-12-14T18:28:12.459Z,2.40
2018-12-14T18:30:40.911Z,2.40
2018-12-14T18:33:09.348Z,2.40
2018-12-14T18:35:37.775Z,2.40
2018-12-14T18:38:06.186Z,2.40
2018-12-14T18:40:35.112Z,2.40
2018-12-14T18:43:03.831Z,2.40
2018-12-14T18:45:32.281Z,2.30
2018-12-14T18:48:00.910Z,2.30
2018-12-14T18:50:29.351Z,2.30
2018-12-14T18:52:57.827Z,2.30
2018-12-14T18:55:26.415Z,2.20
2018-12-14T18:57:54.850Z,2.20
2018-12-14T19:01:47.758Z,2.20
2018-12-14T19:04:16.196Z,2.10
2018-12-14T19:06:45.337Z,2.10
2018-12-14T19:09:14.094Z,2.10
2018-12-14T19:11:42.557Z,2.10
2018-12-14T19:14:11.022Z,2.10
2018-12-14T19:16:39.759Z,2.10
2018-12-14T19:19:08.304Z,2.10
2018-12-14T19:21:37.015Z,2.00
2018-12-14T19:24:05.542Z,2.10
2018-12-14T19:26:33.979Z,2.10
2018-12-14T19:29:02.512Z,2.10
2018-12-14T19:31:31.907Z,2.00
2018-12-14T19:34:00.328Z,2.00
2018-12-14T19:36:28.823Z,2.00
2018-12-14T19:38:57.521Z,2.00
2018-12-14T19:41:25.954Z,2.00
2018-12-14T19:43:54.381Z,2.00
2018-12-14T19:46:22.833Z,2.00
2018-12-14T19:48:51.263Z,2.00
2018-12-14T19:51:19.716Z,1.90
2018-12-14T19:53:51.352Z,1.90
2018-12-14T19:56:19.768Z,1.90
2018-12-14T19:58:48.220Z,1.90
2018-12-14T20:01:16.745Z,1.90
2018-12-14T20:03:45.214Z,1.90
2018-12-14T20:06:13.679Z,1.90
2018-12-14T20:08:42.231Z,1.90
2018-12-14T20:11:10.700Z,1.90
2018-12-14T20:13:39.147Z,1.90
2018-12-14T20:16:12.683Z,1.90
2018-12-14T20:18:38.112Z,1.90
2018-12-14T20:21:06.605Z,1.90
2018-12-14T20:23:35.136Z,1.80
2018-12-14T20:26:03.590Z,1.80
2018-12-14T20:28:32.167Z,1.80
2018-12-14T20:31:00.780Z,1.80
2018-12-14T20:33:29.211Z,1.80
2018-12-14T20:35:57.664Z,1.80
2018-12-14T20:38:26.262Z,1.70
2018-12-14T20:40:54.727Z,1.70
2018-12-14T20:43:23.191Z,1.70
2018-12-14T20:45:51.719Z,1.60
2018-12-14T20:48:20.115Z,1.70
2018-12-14T20:50:48.566Z,1.60
2018-12-14T20:53:17.042Z,1.50
2018-12-14T20:55:45.469Z,1.50
2018-12-14T20:58:14.029Z,1.50
2018-12-14T21:00:42.505Z,1.50
2018-12-14T21:03:10.972Z,1.50
2018-12-14T21:05:39.469Z,1.50
2018-12-14T21:08:07.937Z,1.40
2018-12-14T21:10:36.486Z,1.50
2018-12-14T21:13:04.950Z,1.50
2018-12-14T21:15:33.460Z,1.40
2018-12-14T21:18:02.001Z,1.40
2018-12-14T21:20:30.419Z,1.40
2018-12-14T21:22:59.057Z,1.40
2018-12-14T21:25:27.610Z,1.40
2018-12-14T21:27:56.082Z,1.40
2018-12-14T21:30:24.583Z,1.40
2018-12-14T21:32:53.018Z,1.40
2018-12-14T21:35:21.454Z,1.50
2018-12-14T21:37:50.039Z,1.40
2018-12-14T21:40:18.480Z,1.40
2018-12-14T21:42:46.944Z,1.50
2018-12-14T21:45:15.531Z,1.40
2018-12-14T21:47:43.960Z,1.40
2018-12-14T21:50:12.369Z,1.40
2018-12-14T21:52:40.867Z,1.40
2018-12-14T21:55:09.325Z,1.40
2018-12-14T21:57:38.383Z,1.40
2018-12-14T22:00:09.222Z,1.40
2018-12-14T22:02:37.731Z,1.40
2018-12-14T22:05:06.994Z,1.40
2018-12-14T22:07:35.484Z,1.40
2018-12-14T22:10:04.473Z,1.40
2018-12-14T22:12:32.892Z,1.40
2018-12-14T22:15:01.359Z,1.40
2018-12-14T22:17:29.870Z,1.40
2018-12-14T22:19:58.297Z,1.40
2018-12-14T22:22:26.843Z,1.40
2018-12-14T22:24:55.412Z,1.40
2018-12-14T22:27:23.932Z,1.40
2018-12-14T22:29:52.355Z,1.40
2018-12-14T22:32:20.797Z,1.40
2018-12-14T22:34:49.353Z,1.40
2018-12-14T22:37:17.863Z,1.30
2018-12-14T22:39:46.434Z,1.30
2018-12-14T22:42:14.967Z,1.30
2018-12-14T22:44:43.416Z,1.30
2018-12-14T22:47:12.002Z,1.30
2018-12-14T22:49:40.447Z,1.30
2018-12-14T22:52:12.307Z,1.30
2018-12-14T22:54:40.837Z,1.30
2018-12-14T22:57:09.274Z,1.30
2018-12-14T22:59:37.938Z,1.30
2018-12-14T23:02:06.447Z,1.30
2018-12-14T23:04:34.972Z,1.30
2018-12-14T23:07:03.491Z,1.30
2018-12-14T23:09:31.896Z,1.20
2018-12-14T23:12:00.315Z,1.20
2018-12-14T23:14:28.901Z,1.30
2018-12-14T23:16:57.420Z,1.30
2018-12-14T23:19:26.039Z,1.30
2018-12-14T23:21:54.830Z,1.30
2018-12-14T23:24:23.279Z,1.20
2018-12-14T23:26:51.700Z,1.20
2018-12-14T23:29:20.169Z,1.20
2018-12-14T23:31:48.604Z,1.30
2018-12-14T23:34:17.191Z,1.20
2018-12-14T23:36:45.782Z,1.20
2018-12-14T23:39:14.197Z,1.20
2018-12-14T23:41:42.687Z,1.20
2018-12-14T23:44:11.194Z,1.20
2018-12-14T23:46:39.599Z,1.10
2018-12-14T23:49:08.071Z,1.10
2018-12-14T23:51:36.531Z,1.10
2018-12-14T23:54:04.983Z,1.10
2018-12-14T23:56:33.547Z,1.10
2018-12-14T23:59:02.045Z,1.10
